Portada
METAR-TAF:

METAR-TAF

Aeroports :

Paulo Afonso, Bahia, Brasil

latitud: 09-24S, longitud: 038-13W, altitud: 253 m

Observació

L'informe es va fer fa 13 hores i 22 minuts, a les 19:00 UTC
Vent 8 kt del Est
Temperatura 29°C
Humitat 43%
Pressió 1015 hPa
Visibilitat 10 km o més
Escasses núvols a una alçada de 2100 ft

METAR: SBUF 161900Z 09008KT 9999 FEW021 29/15 Q1015

Hora: 05:22 (08:22 UTC)


TAF: manca

Observacions i pronòstics meteorològics de més de 4000 aeroports (METAR i TAF).

Les estacions disponibles són els punts grocs i vermells al mapa.

Posi el ratolí al punt desitjat per veure el nom de l'estació.

Feu clic per veure les observacions i els pronòstics meteorològics.

Per canviar el mapa: feu clic els botons verds amb una creu de color negre per apropar; al botó verd amb un guió per allunyar la imatge; o en les fletxes verdes per a mapes adjacents.


METAR-TAF: